createdAt,value
2018-05-18T00:01:08.328Z,1.13
2018-05-18T00:03:35.036Z,1.30
2018-05-18T00:06:01.740Z,1.43
2018-05-18T00:08:28.443Z,1.50
2018-05-18T00:10:55.152Z,1.47
2018-05-18T00:13:21.871Z,1.20
2018-05-18T00:15:48.578Z,1.13
2018-05-18T00:18:15.278Z,1.43
2018-05-18T00:20:41.989Z,1.40
2018-05-18T00:23:08.687Z,2.20
2018-05-18T00:25:35.391Z,1.20
2018-05-18T00:28:02.743Z,1.37
2018-05-18T00:30:29.523Z,1.23
2018-05-18T00:32:56.259Z,1.10
2018-05-18T00:35:22.983Z,1.20
2018-05-18T00:37:49.708Z,1.30
2018-05-18T00:40:16.427Z,1.30
2018-05-18T00:42:43.151Z,1.20
2018-05-18T00:45:09.848Z,1.20
2018-05-18T00:47:36.548Z,1.10
2018-05-18T00:50:03.278Z,1.10
2018-05-18T00:52:29.975Z,1.40
2018-05-18T00:54:56.813Z,1.23
2018-05-18T00:57:23.655Z,1.50
2018-05-18T00:59:50.355Z,1.10
2018-05-18T01:02:17.055Z,1.10
2018-05-18T01:04:43.748Z,1.40
2018-05-18T01:07:10.465Z,1.10
2018-05-18T01:09:37.168Z,1.30
2018-05-18T01:12:03.889Z,1.70
2018-05-18T01:14:30.598Z,1.27
2018-05-18T01:16:57.295Z,1.30
2018-05-18T01:19:24.024Z,1.40
2018-05-18T01:21:50.723Z,1.30
2018-05-18T01:24:17.415Z,1.40
2018-05-18T01:26:44.116Z,1.50
2018-05-18T01:29:10.813Z,1.47
2018-05-18T01:31:37.862Z,1.20
2018-05-18T01:34:04.568Z,1.30
2018-05-18T01:36:31.271Z,1.60
2018-05-18T01:38:57.967Z,1.20
2018-05-18T01:41:24.680Z,1.40
2018-05-18T01:43:51.399Z,1.03
2018-05-18T01:46:18.355Z,1.30
2018-05-18T01:48:45.059Z,1.40
2018-05-18T01:51:11.765Z,1.40
2018-05-18T01:53:38.527Z,1.20
2018-05-18T01:56:05.251Z,1.43
2018-05-18T01:58:32.148Z,1.40
2018-05-18T02:00:58.843Z,1.10
2018-05-18T02:03:25.557Z,1.20
2018-05-18T02:05:52.251Z,1.27
2018-05-18T02:08:18.995Z,1.20
2018-05-18T02:10:45.688Z,1.40
2018-05-18T02:13:12.389Z,1.47
2018-05-18T02:15:39.120Z,1.10
2018-05-18T02:18:05.820Z,1.40
2018-05-18T02:20:32.547Z,1.37
2018-05-18T02:22:59.239Z,1.17
2018-05-18T02:25:26.220Z,1.10
2018-05-18T02:27:52.920Z,1.03
2018-05-18T02:30:19.632Z,1.30
2018-05-18T02:32:46.362Z,1.20
2018-05-18T02:35:13.062Z,1.37
2018-05-18T02:37:39.902Z,1.17
2018-05-18T02:40:06.618Z,1.37
2018-05-18T02:42:33.333Z,1.43
2018-05-18T02:45:00.067Z,1.13
2018-05-18T02:47:26.978Z,1.10
2018-05-18T02:49:53.694Z,1.40
2018-05-18T02:52:20.459Z,1.47
2018-05-18T02:54:47.139Z,1.30
2018-05-18T02:57:13.865Z,1.60
2018-05-18T02:59:40.863Z,1.40
2018-05-18T03:02:07.681Z,1.30
2018-05-18T03:04:34.392Z,1.20
2018-05-18T03:07:01.088Z,1.30
2018-05-18T03:09:27.852Z,1.20
2018-05-18T03:11:54.636Z,1.30
2018-05-18T03:14:21.284Z,1.33
2018-05-18T03:16:48.000Z,1.30
2018-05-18T03:19:14.706Z,1.87
2018-05-18T03:21:41.616Z,1.43
2018-05-18T03:24:08.311Z,1.40
2018-05-18T03:26:35.019Z,1.20
2018-05-18T03:29:01.722Z,1.10
2018-05-18T03:31:28.428Z,1.20
2018-05-18T03:33:55.152Z,1.30
2018-05-18T03:36:21.858Z,1.10
2018-05-18T03:38:48.579Z,1.30
2018-05-18T03:41:15.318Z,1.30
2018-05-18T03:43:42.027Z,1.40
2018-05-18T03:46:08.752Z,1.20
2018-05-18T03:48:35.451Z,1.20
2018-05-18T03:51:02.151Z,1.23
2018-05-18T03:53:28.856Z,1.50
2018-05-18T03:55:55.612Z,1.60
2018-05-18T03:58:22.336Z,1.17
2018-05-18T04:00:49.031Z,1.43
2018-05-18T04:03:21.685Z,1.40
2018-05-18T04:05:54.157Z,1.50
2018-05-18T04:08:36.572Z,1.30
2018-05-18T04:11:03.304Z,1.30
2018-05-18T04:13:30.004Z,1.47
2018-05-18T04:15:56.774Z,1.57
2018-05-18T04:18:23.491Z,1.33
2018-05-18T04:20:50.196Z,1.53
2018-05-18T04:23:16.917Z,1.60
2018-05-18T04:25:43.806Z,1.50
2018-05-18T04:28:10.519Z,1.53
2018-05-18T04:30:37.211Z,1.37
2018-05-18T04:33:03.904Z,1.30
2018-05-18T04:35:30.615Z,1.57
2018-05-18T04:37:57.307Z,1.60
2018-05-18T04:40:24.023Z,1.40
2018-05-18T04:42:50.721Z,1.67
2018-05-18T04:45:17.427Z,1.50
2018-05-18T04:47:44.194Z,1.43
2018-05-18T04:50:10.900Z,1.60
2018-05-18T04:52:37.603Z,1.50
2018-05-18T04:55:04.300Z,1.30
2018-05-18T04:57:30.997Z,1.60
2018-05-18T04:59:57.852Z,1.67
2018-05-18T05:02:24.567Z,1.30
2018-05-18T05:04:51.260Z,1.50
2018-05-18T05:07:17.966Z,1.50
2018-05-18T05:09:44.671Z,1.60
2018-05-18T05:12:11.397Z,1.50
2018-05-18T05:14:38.108Z,1.30
2018-05-18T05:17:04.808Z,1.50
2018-05-18T05:19:31.535Z,1.57
2018-05-18T05:21:58.235Z,1.30
2018-05-18T05:24:25.075Z,1.40
2018-05-18T05:26:51.723Z,1.50
2018-05-18T05:29:22.203Z,1.50
2018-05-18T05:31:49.759Z,1.97
2018-05-18T05:34:17.443Z,1.40
2018-05-18T05:36:45.132Z,1.63
2018-05-18T05:39:12.007Z,1.50
2018-05-18T05:41:39.681Z,1.70
2018-05-18T05:44:09.027Z,1.30
2018-05-18T05:46:38.199Z,1.40
2018-05-18T05:49:05.537Z,1.60
2018-05-18T05:51:35.816Z,1.97
2018-05-18T05:54:02.721Z,1.40
2018-05-18T05:56:30.492Z,1.67
2018-05-18T05:58:57.205Z,1.63
2018-05-18T06:01:23.929Z,1.80
2018-05-18T06:03:50.632Z,1.60
2018-05-18T06:06:17.332Z,1.90
2018-05-18T06:08:44.035Z,1.90
2018-05-18T06:11:10.735Z,1.50
2018-05-18T06:13:37.435Z,1.53
2018-05-18T06:16:04.131Z,1.70
2018-05-18T06:18:30.827Z,1.80
2018-05-18T06:20:57.527Z,1.90
2018-05-18T06:23:24.227Z,1.70
2018-05-18T06:25:50.921Z,1.80
2018-05-18T06:28:17.620Z,1.70
2018-05-18T06:30:44.343Z,1.60
2018-05-18T06:33:11.048Z,1.83
2018-05-18T06:35:37.749Z,1.50
2018-05-18T06:38:04.472Z,1.73
2018-05-18T06:40:31.180Z,1.67
2018-05-18T06:42:57.880Z,1.83
2018-05-18T06:45:24.600Z,1.60
2018-05-18T06:47:51.300Z,1.57
2018-05-18T06:50:18.000Z,1.60
2018-05-18T06:52:44.704Z,1.93
2018-05-18T06:55:11.404Z,1.40
2018-05-18T06:57:38.127Z,1.67
2018-05-18T07:00:04.857Z,1.50
2018-05-18T07:02:31.560Z,1.50
2018-05-18T07:04:58.267Z,1.60
2018-05-18T07:07:24.976Z,1.50
2018-05-18T07:09:51.700Z,1.77
2018-05-18T07:12:18.416Z,1.83
2018-05-18T07:14:45.116Z,1.50
2018-05-18T07:17:11.812Z,1.70
2018-05-18T07:19:38.511Z,1.60
2018-05-18T07:22:05.227Z,1.70
2018-05-18T07:24:31.923Z,1.43
2018-05-18T07:26:58.629Z,1.70
2018-05-18T07:29:25.340Z,1.60
2018-05-18T07:31:52.051Z,1.70
2018-05-18T07:34:18.771Z,1.60
2018-05-18T07:36:45.471Z,1.87
2018-05-18T07:39:12.223Z,1.90
2018-05-18T07:41:38.905Z,1.80
2018-05-18T07:44:05.609Z,1.57
2018-05-18T07:46:32.341Z,1.63
2018-05-18T07:48:59.040Z,1.57
2018-05-18T07:51:25.741Z,1.83
2018-05-18T07:53:52.444Z,1.70
2018-05-18T07:56:19.155Z,1.53
2018-05-18T07:58:45.879Z,1.67
2018-05-18T08:01:12.584Z,1.90
2018-05-18T08:03:39.283Z,1.50
2018-05-18T08:06:05.984Z,1.73
2018-05-18T08:08:32.718Z,1.70
2018-05-18T08:10:59.440Z,1.70
2018-05-18T08:13:26.140Z,2.20
2018-05-18T08:15:52.849Z,1.50
2018-05-18T08:18:19.555Z,1.67
2018-05-18T08:20:46.258Z,1.90
2018-05-18T08:23:12.998Z,1.60
2018-05-18T08:25:39.699Z,1.57
2018-05-18T08:28:06.393Z,1.73
2018-05-18T08:30:39.113Z,2.33
2018-05-18T08:33:05.807Z,1.70
2018-05-18T08:35:32.798Z,2.20
2018-05-18T08:37:59.504Z,1.77
2018-05-18T08:40:26.237Z,2.10
2018-05-18T08:42:52.931Z,2.13
2018-05-18T08:45:19.655Z,1.67
2018-05-18T08:47:46.379Z,1.50
2018-05-18T08:50:13.099Z,1.53
2018-05-18T08:52:39.810Z,2.00
2018-05-18T08:55:06.510Z,1.80
2018-05-18T08:57:33.203Z,1.70
2018-05-18T08:59:59.903Z,1.60
2018-05-18T09:02:26.616Z,2.10
2018-05-18T09:04:53.315Z,1.60
2018-05-18T09:07:20.020Z,1.70
2018-05-18T09:09:46.720Z,1.80
2018-05-18T09:12:13.593Z,1.70
2018-05-18T09:14:40.326Z,1.80
2018-05-18T09:17:07.019Z,1.70
2018-05-18T09:19:33.715Z,1.60
2018-05-18T09:22:00.415Z,1.80
2018-05-18T09:24:27.115Z,1.47
2018-05-18T09:26:53.847Z,1.73
2018-05-18T09:29:20.545Z,1.80
2018-05-18T09:31:47.413Z,1.60
2018-05-18T09:34:14.115Z,1.80
2018-05-18T09:36:40.836Z,1.90
2018-05-18T09:39:07.567Z,1.60
2018-05-18T09:41:34.268Z,1.70
2018-05-18T09:44:00.980Z,1.70
2018-05-18T09:46:27.711Z,1.60
2018-05-18T09:48:54.426Z,1.50
2018-05-18T09:51:21.148Z,1.73
2018-05-18T09:53:47.844Z,2.17
2018-05-18T09:56:14.543Z,1.77
2018-05-18T09:58:41.286Z,1.37
2018-05-18T10:01:07.987Z,1.60
2018-05-18T10:03:34.703Z,1.60
2018-05-18T10:06:01.412Z,1.30
2018-05-18T10:08:28.107Z,1.67
2018-05-18T10:10:54.807Z,1.50
2018-05-18T10:13:21.517Z,1.43
2018-05-18T10:15:48.239Z,1.30
2018-05-18T10:18:14.948Z,1.80
2018-05-18T10:20:41.660Z,1.20
2018-05-18T10:23:08.352Z,1.47
2018-05-18T10:25:35.063Z,1.60
2018-05-18T10:28:01.784Z,1.50
2018-05-18T10:30:30.237Z,1.40
2018-05-18T10:32:56.933Z,1.40
2018-05-18T10:35:23.631Z,1.40
2018-05-18T10:37:50.336Z,1.50
2018-05-18T10:40:17.091Z,1.33
2018-05-18T10:42:43.799Z,1.57
2018-05-18T10:45:10.500Z,1.50
2018-05-18T10:47:37.240Z,1.60
2018-05-18T10:50:03.931Z,1.60
2018-05-18T10:52:30.675Z,1.93
2018-05-18T10:54:57.372Z,1.40
2018-05-18T10:57:24.069Z,1.63
2018-05-18T10:59:50.768Z,1.93
2018-05-18T11:02:17.471Z,1.37
2018-05-18T11:04:44.187Z,1.37
2018-05-18T11:07:10.895Z,1.83
2018-05-18T11:09:37.592Z,1.60
2018-05-18T11:12:04.287Z,1.43
2018-05-18T11:14:30.987Z,1.50
2018-05-18T11:16:57.716Z,1.70
2018-05-18T11:19:24.419Z,1.60
2018-05-18T11:21:51.121Z,1.70
2018-05-18T11:24:17.829Z,1.47
2018-05-18T11:26:44.528Z,1.80
2018-05-18T11:29:11.257Z,1.50
2018-05-18T11:31:37.961Z,1.47
2018-05-18T11:34:04.659Z,1.50
2018-05-18T11:36:31.364Z,1.73
2018-05-18T11:38:58.132Z,1.30
2018-05-18T11:41:24.946Z,1.70
2018-05-18T11:43:51.647Z,1.57
2018-05-18T11:46:18.376Z,2.27
2018-05-18T11:48:45.084Z,1.40
2018-05-18T11:51:11.779Z,1.63
2018-05-18T11:53:38.639Z,1.70
2018-05-18T11:56:05.292Z,1.83
2018-05-18T11:58:31.936Z,1.80
2018-05-18T12:00:58.588Z,1.70
2018-05-18T12:03:25.241Z,1.87
2018-05-18T12:05:51.989Z,1.50
2018-05-18T12:08:18.648Z,1.60
2018-05-18T12:10:45.300Z,1.70
2018-05-18T12:13:11.966Z,2.00
2018-05-18T12:15:38.621Z,1.60
2018-05-18T12:18:05.300Z,1.63
2018-05-18T12:20:31.957Z,1.73
2018-05-18T12:22:58.608Z,1.50
2018-05-18T12:25:25.256Z,1.70
2018-05-18T12:27:51.946Z,1.47
2018-05-18T12:30:18.613Z,1.40
2018-05-18T12:32:45.265Z,1.17
2018-05-18T12:35:11.938Z,1.27
2018-05-18T12:37:38.593Z,1.80
2018-05-18T12:40:05.248Z,2.03
2018-05-18T12:42:31.917Z,1.30
2018-05-18T12:44:58.610Z,1.40
2018-05-18T12:47:25.306Z,1.60
2018-05-18T12:49:52.039Z,1.80
2018-05-18T12:52:18.701Z,1.53
2018-05-18T12:54:45.365Z,1.70
2018-05-18T12:57:12.880Z,1.47
2018-05-18T12:59:39.538Z,1.47
2018-05-18T13:02:06.193Z,1.20
2018-05-18T13:04:32.852Z,1.47
2018-05-18T13:06:59.538Z,1.60
2018-05-18T13:09:26.194Z,1.40
2018-05-18T13:11:52.848Z,1.60
2018-05-18T13:14:19.532Z,1.50
2018-05-18T13:16:46.197Z,1.40
2018-05-18T13:19:12.860Z,1.70
2018-05-18T13:21:39.517Z,1.40
2018-05-18T13:24:06.214Z,1.50
2018-05-18T13:26:32.900Z,1.33
2018-05-18T13:28:59.575Z,1.33
2018-05-18T13:31:26.233Z,1.50
2018-05-18T13:33:52.892Z,1.47
2018-05-18T13:36:19.548Z,1.20
2018-05-18T13:38:46.262Z,1.30
2018-05-18T13:41:12.902Z,1.10
2018-05-18T13:43:39.577Z,1.30
2018-05-18T13:46:06.237Z,1.60
2018-05-18T13:48:32.892Z,1.40
2018-05-18T13:50:59.572Z,1.20
2018-05-18T13:53:26.233Z,1.00
2018-05-18T13:55:52.908Z,1.40
2018-05-18T13:58:19.580Z,1.17
2018-05-18T14:00:46.259Z,1.00
2018-05-18T14:03:12.954Z,1.23
2018-05-18T14:05:39.609Z,1.37
2018-05-18T14:08:06.264Z,1.33
2018-05-18T14:10:32.942Z,1.37
2018-05-18T14:12:59.611Z,1.10
2018-05-18T14:15:26.256Z,1.20
2018-05-18T14:17:52.956Z,1.03
2018-05-18T14:20:19.619Z,0.97
2018-05-18T14:22:46.276Z,1.23
2018-05-18T14:25:12.940Z,1.37
2018-05-18T14:27:39.600Z,1.30
2018-05-18T14:30:06.253Z,1.30
2018-05-18T14:32:32.908Z,1.33
2018-05-18T14:34:59.564Z,1.43
2018-05-18T14:37:26.241Z,1.07
2018-05-18T14:39:52.901Z,1.30
2018-05-18T14:42:19.574Z,1.23
2018-05-18T14:44:46.236Z,1.20
2018-05-18T14:47:12.890Z,1.03
2018-05-18T14:49:39.577Z,1.20
2018-05-18T14:52:06.229Z,1.10
2018-05-18T14:54:32.892Z,1.00
2018-05-18T14:56:59.551Z,1.10
2018-05-18T14:59:26.205Z,1.10
2018-05-18T15:01:52.889Z,1.23
2018-05-18T15:04:19.542Z,1.00
2018-05-18T15:06:46.205Z,1.13
2018-05-18T15:09:12.864Z,0.90
2018-05-18T15:11:39.524Z,1.30
2018-05-18T15:14:06.202Z,0.90
2018-05-18T15:16:32.854Z,1.03
2018-05-18T15:18:59.513Z,1.07
2018-05-18T15:21:26.157Z,1.27
2018-05-18T15:23:52.816Z,0.90
2018-05-18T15:26:19.488Z,0.93
2018-05-18T15:28:46.223Z,1.30
2018-05-18T15:31:12.839Z,0.80
2018-05-18T15:33:39.507Z,1.03
2018-05-18T15:36:06.164Z,0.80
2018-05-18T15:38:32.852Z,0.90
2018-05-18T15:40:59.504Z,0.87
2018-05-18T15:43:26.157Z,1.20
2018-05-18T15:45:52.809Z,1.00
2018-05-18T15:48:19.452Z,0.90
2018-05-18T15:50:46.132Z,0.90
2018-05-18T15:53:12.788Z,0.90
2018-05-18T15:55:39.446Z,0.97
2018-05-18T15:58:06.104Z,0.90
2018-05-18T16:00:32.753Z,0.73
2018-05-18T16:02:59.459Z,1.10
2018-05-18T16:05:26.124Z,1.00
2018-05-18T16:07:52.781Z,1.10
2018-05-18T16:10:19.432Z,0.97
2018-05-18T16:12:46.085Z,1.00
2018-05-18T16:15:12.769Z,1.70
2018-05-18T16:17:39.421Z,1.10
2018-05-18T16:20:06.076Z,0.90
2018-05-18T16:22:32.741Z,1.10
2018-05-18T16:24:59.391Z,0.90
2018-05-18T16:27:26.273Z,0.93
2018-05-18T16:29:52.953Z,1.10
2018-05-18T16:32:19.630Z,0.90
2018-05-18T16:34:46.292Z,1.07
2018-05-18T16:37:12.954Z,0.77
2018-05-18T16:39:39.637Z,0.80
2018-05-18T16:42:06.291Z,1.03
2018-05-18T16:44:33.296Z,0.83
2018-05-18T16:46:59.985Z,0.80
2018-05-18T16:49:26.664Z,0.97
2018-05-18T16:51:53.347Z,1.00
2018-05-18T16:54:20.005Z,0.90
2018-05-18T16:56:46.648Z,1.20
2018-05-18T16:59:13.304Z,0.90
2018-05-18T17:01:39.957Z,0.93
2018-05-18T17:04:06.652Z,0.90
2018-05-18T17:06:33.331Z,0.90
2018-05-18T17:08:59.984Z,1.13
2018-05-18T17:11:26.642Z,1.17
2018-05-18T17:13:53.293Z,1.00
2018-05-18T17:16:19.965Z,1.00
2018-05-18T17:18:46.613Z,1.30
2018-05-18T17:21:13.264Z,1.10
2018-05-18T17:23:39.916Z,0.90
2018-05-18T17:26:06.584Z,0.77
2018-05-18T17:28:33.256Z,0.77
2018-05-18T17:30:59.904Z,1.00
2018-05-18T17:33:26.572Z,1.00
2018-05-18T17:35:53.236Z,1.27
2018-05-18T17:38:19.893Z,1.00
2018-05-18T17:40:46.584Z,0.90
2018-05-18T17:43:13.253Z,1.00
2018-05-18T17:45:39.928Z,1.07
2018-05-18T17:48:06.581Z,1.20
2018-05-18T17:50:33.424Z,1.10
2018-05-18T17:53:00.103Z,1.10
2018-05-18T17:55:26.762Z,1.10
2018-05-18T17:57:53.434Z,1.40
2018-05-18T18:00:20.084Z,1.10
2018-05-18T18:02:46.744Z,0.90
2018-05-18T18:05:13.434Z,5.37
2018-05-18T18:07:40.089Z,1.40
2018-05-18T18:10:06.741Z,1.50
2018-05-18T18:12:33.389Z,1.00
2018-05-18T18:15:00.044Z,0.90
2018-05-18T18:17:26.737Z,1.00
2018-05-18T18:19:53.393Z,1.00
2018-05-18T18:22:20.093Z,1.00
2018-05-18T18:24:46.737Z,0.90
2018-05-18T18:27:13.393Z,1.17
2018-05-18T18:29:40.065Z,1.00
2018-05-18T18:32:06.770Z,1.97
2018-05-18T18:34:33.432Z,1.40
2018-05-18T18:37:00.080Z,4.63
2018-05-18T18:39:26.792Z,1.30
2018-05-18T18:41:53.488Z,3.30
2018-05-18T18:44:20.157Z,1.60
2018-05-18T18:46:46.809Z,1.47
2018-05-18T18:49:13.480Z,1.10
2018-05-18T18:51:40.134Z,0.93
2018-05-18T18:54:06.810Z,0.87
2018-05-18T18:56:33.456Z,0.83
2018-05-18T18:59:00.180Z,1.10
2018-05-18T19:01:26.833Z,1.00
2018-05-18T19:03:53.484Z,0.80
2018-05-18T19:06:20.156Z,1.10
2018-05-18T19:08:46.815Z,0.70
2018-05-18T19:11:13.479Z,0.93
2018-05-18T19:13:40.138Z,0.90
2018-05-18T19:16:06.789Z,1.00
2018-05-18T19:18:33.438Z,1.17
2018-05-18T19:21:00.086Z,0.90
2018-05-18T19:23:26.757Z,0.90
2018-05-18T19:25:53.412Z,1.00
2018-05-18T19:28:20.068Z,0.93
2018-05-18T19:30:46.729Z,1.00
2018-05-18T19:33:13.436Z,0.90
2018-05-18T19:35:40.096Z,1.67
2018-05-18T19:38:06.752Z,1.40
2018-05-18T19:40:33.409Z,1.20
2018-05-18T19:43:00.092Z,1.40
2018-05-18T19:45:26.757Z,1.20
2018-05-18T19:47:53.409Z,1.10
2018-05-18T19:50:20.088Z,1.40
2018-05-18T19:52:46.757Z,1.10
2018-05-18T19:55:13.715Z,0.90
2018-05-18T19:57:40.410Z,1.03
2018-05-18T20:00:07.074Z,1.20
2018-05-18T20:02:33.728Z,1.50
2018-05-18T20:05:00.403Z,1.40
2018-05-18T20:07:27.078Z,1.10
2018-05-18T20:09:53.779Z,1.57
2018-05-18T20:12:20.446Z,1.40
2018-05-18T20:14:47.122Z,1.30
2018-05-18T20:17:13.777Z,1.53
2018-05-18T20:19:40.450Z,1.20
2018-05-18T20:22:07.392Z,1.57
2018-05-18T20:24:34.041Z,1.83
2018-05-18T20:27:00.696Z,1.50
2018-05-18T20:29:27.367Z,1.50
2018-05-18T20:31:54.035Z,1.40
2018-05-18T20:34:20.741Z,1.90
2018-05-18T20:36:47.414Z,1.43
2018-05-18T20:39:14.072Z,1.50
2018-05-18T20:41:40.724Z,1.50
2018-05-18T20:44:07.392Z,1.90
2018-05-18T20:46:34.080Z,1.40
2018-05-18T20:49:00.741Z,1.40
2018-05-18T20:51:27.408Z,1.50
2018-05-18T20:53:54.080Z,1.57
2018-05-18T20:56:20.740Z,2.00
2018-05-18T20:58:47.417Z,2.10
2018-05-18T21:01:14.072Z,2.20
2018-05-18T21:03:40.724Z,2.40
2018-05-18T21:06:07.385Z,2.40
2018-05-18T21:08:34.037Z,2.37
2018-05-18T21:11:00.716Z,2.60
2018-05-18T21:13:27.385Z,2.60
2018-05-18T21:15:54.035Z,2.60
2018-05-18T21:18:20.693Z,2.63
2018-05-18T21:20:47.351Z,2.70
2018-05-18T21:23:14.261Z,2.60
2018-05-18T21:25:40.909Z,2.80
2018-05-18T21:28:07.568Z,2.73
2018-05-18T21:30:34.263Z,3.20
2018-05-18T21:33:00.941Z,2.50
2018-05-18T21:35:27.612Z,3.20
2018-05-18T21:37:54.272Z,3.00
2018-05-18T21:40:20.993Z,2.90
2018-05-18T21:42:47.653Z,3.03
2018-05-18T21:45:14.308Z,3.03
2018-05-18T21:47:40.988Z,2.80
2018-05-18T21:50:07.653Z,2.67
2018-05-18T21:52:34.317Z,3.00
2018-05-18T21:55:01.009Z,3.40
2018-05-18T21:57:27.684Z,3.60
2018-05-18T21:59:54.361Z,3.70
2018-05-18T22:02:21.020Z,3.40
2018-05-18T22:04:47.696Z,4.00
2018-05-18T22:07:14.399Z,3.97
2018-05-18T22:09:41.124Z,3.77
2018-05-18T22:12:07.853Z,3.87
2018-05-18T22:14:34.551Z,3.67
2018-05-18T22:17:01.251Z,3.30
2018-05-18T22:19:28.167Z,3.20
2018-05-18T22:21:54.867Z,2.83
2018-05-18T22:24:21.600Z,2.33
2018-05-18T22:26:49.234Z,2.53
2018-05-18T23:29:58.532Z,2.20
2018-05-18T23:32:25.232Z,2.40
2018-05-18T23:34:51.956Z,2.07
2018-05-18T23:37:18.665Z,1.80
2018-05-18T23:39:45.367Z,2.00
2018-05-18T23:42:12.094Z,1.90
2018-05-18T23:44:38.793Z,2.00
2018-05-18T23:47:05.531Z,1.77
2018-05-18T23:49:32.228Z,2.20
2018-05-18T23:51:58.935Z,1.70
2018-05-18T23:54:25.640Z,1.90
2018-05-18T23:56:52.344Z,1.90
2018-05-18T23:59:19.075Z,1.97
